sensor_id;sensor_type;location;lat;lon;timestamp;pressure;altitude;pressure_sealevel;temperature;humidity
68634;BME280;55625;47.072;22.192;2023-04-15T00:01:26;98810.41;;;6.47;97.97
68634;BME280;55625;47.072;22.192;2023-04-15T00:03:54;98815.59;;;6.48;97.10
68634;BME280;55625;47.072;22.192;2023-04-15T00:06:21;98798.00;;;6.44;97.06
68634;BME280;55625;47.072;22.192;2023-04-15T00:08:47;98803.53;;;6.48;97.92
68634;BME280;55625;47.072;22.192;2023-04-15T00:11:13;98812.88;;;6.45;98.46
68634;BME280;55625;47.072;22.192;2023-04-15T00:13:40;98811.09;;;6.51;97.82
68634;BME280;55625;47.072;22.192;2023-04-15T00:16:07;98809.50;;;6.50;97.10
68634;BME280;55625;47.072;22.192;2023-04-15T00:18:34;98815.94;;;6.50;97.07
68634;BME280;55625;47.072;22.192;2023-04-15T00:21:00;98811.19;;;6.47;97.28
68634;BME280;55625;47.072;22.192;2023-04-15T00:23:27;98821.34;;;6.45;97.74
68634;BME280;55625;47.072;22.192;2023-04-15T00:25:53;98822.47;;;6.47;97.34
68634;BME280;55625;47.072;22.192;2023-04-15T00:28:19;98822.81;;;6.49;97.49
68634;BME280;55625;47.072;22.192;2023-04-15T00:30:45;98831.16;;;6.53;96.61
68634;BME280;55625;47.072;22.192;2023-04-15T00:33:13;98821.47;;;6.54;97.38
68634;BME280;55625;47.072;22.192;2023-04-15T00:35:39;98817.50;;;6.51;96.61
68634;BME280;55625;47.072;22.192;2023-04-15T00:38:06;98813.78;;;6.54;96.29
68634;BME280;55625;47.072;22.192;2023-04-15T00:40:33;98818.63;;;6.54;96.56
68634;BME280;55625;47.072;22.192;2023-04-15T00:43:00;98824.63;;;6.56;96.61
68634;BME280;55625;47.072;22.192;2023-04-15T00:45:26;98823.03;;;6.55;96.57
68634;BME280;55625;47.072;22.192;2023-04-15T00:47:52;98818.31;;;6.52;96.71
68634;BME280;55625;47.072;22.192;2023-04-15T00:50:18;98822.25;;;6.54;96.49
68634;BME280;55625;47.072;22.192;2023-04-15T00:52:44;98831.03;;;6.57;95.88
68634;BME280;55625;47.072;22.192;2023-04-15T00:55:10;98821.81;;;6.56;95.73
68634;BME280;55625;47.072;22.192;2023-04-15T00:57:38;98820.44;;;6.61;95.27
68634;BME280;55625;47.072;22.192;2023-04-15T01:00:05;98824.41;;;6.63;95.13
68634;BME280;55625;47.072;22.192;2023-04-15T01:02:34;98825.28;;;6.60;95.68
68634;BME280;55625;47.072;22.192;2023-04-15T01:05:01;98822.47;;;6.60;95.00
68634;BME280;55625;47.072;22.192;2023-04-15T01:07:27;98819.53;;;6.64;94.71
68634;BME280;55625;47.072;22.192;2023-04-15T01:09:53;98821.56;;;6.63;94.51
68634;BME280;55625;47.072;22.192;2023-04-15T01:12:19;98817.84;;;6.66;94.44
68634;BME280;55625;47.072;22.192;2023-04-15T01:14:45;98822.94;;;6.71;94.08
68634;BME280;55625;47.072;22.192;2023-04-15T01:17:11;98822.84;;;6.75;93.32
68634;BME280;55625;47.072;22.192;2023-04-15T01:19:38;98820.69;;;6.79;92.81
68634;BME280;55625;47.072;22.192;2023-04-15T01:22:04;98821.03;;;6.81;92.64
68634;BME280;55625;47.072;22.192;2023-04-15T01:24:31;98820.59;;;6.82;92.64
68634;BME280;55625;47.072;22.192;2023-04-15T01:26:58;98815.75;;;6.83;92.55
68634;BME280;55625;47.072;22.192;2023-04-15T01:29:24;98819.22;;;6.87;92.14
68634;BME280;55625;47.072;22.192;2023-04-15T01:31:54;98826.44;;;6.88;92.77
68634;BME280;55625;47.072;22.192;2023-04-15T01:34:21;98830.41;;;6.91;92.47
68634;BME280;55625;47.072;22.192;2023-04-15T01:36:47;98832.31;;;6.94;92.83
68634;BME280;55625;47.072;22.192;2023-04-15T01:39:13;98829.03;;;6.95;92.66
68634;BME280;55625;47.072;22.192;2023-04-15T01:41:39;98825.78;;;6.97;92.71
68634;BME280;55625;47.072;22.192;2023-04-15T01:44:07;98832.53;;;6.99;92.35
68634;BME280;55625;47.072;22.192;2023-04-15T01:46:33;98835.34;;;6.99;93.24
68634;BME280;55625;47.072;22.192;2023-04-15T01:48:59;98831.41;;;6.97;92.91
68634;BME280;55625;47.072;22.192;2023-04-15T01:51:25;98832.19;;;6.97;93.35
68634;BME280;55625;47.072;22.192;2023-04-15T01:53:52;98835.47;;;6.96;93.22
68634;BME280;55625;47.072;22.192;2023-04-15T01:56:18;98834.34;;;6.93;94.25
68634;BME280;55625;47.072;22.192;2023-04-15T01:58:44;98843.16;;;6.95;94.15
68634;BME280;55625;47.072;22.192;2023-04-15T02:01:10;98833.91;;;6.95;94.50
68634;BME280;55625;47.072;22.192;2023-04-15T02:03:36;98827.47;;;6.94;93.94
68634;BME280;55625;47.072;22.192;2023-04-15T02:06:04;98832.19;;;6.97;94.98
68634;BME280;55625;47.072;22.192;2023-04-15T02:08:30;98831.88;;;6.95;95.00
68634;BME280;55625;47.072;22.192;2023-04-15T02:10:56;98841.56;;;6.94;94.96
68634;BME280;55625;47.072;22.192;2023-04-15T02:13:22;98840.09;;;6.90;94.70
68634;BME280;55625;47.072;22.192;2023-04-15T02:15:49;98839.31;;;6.89;94.90
68634;BME280;55625;47.072;22.192;2023-04-15T02:18:15;98838.19;;;6.87;94.72
68634;BME280;55625;47.072;22.192;2023-04-15T02:20:41;98837.97;;;6.81;94.92
68634;BME280;55625;47.072;22.192;2023-04-15T02:23:12;98834.13;;;6.75;94.88
68634;BME280;55625;47.072;22.192;2023-04-15T02:25:37;98829.91;;;6.67;95.34
68634;BME280;55625;47.072;22.192;2023-04-15T02:28:06;98824.28;;;6.54;95.63
68634;BME280;55625;47.072;22.192;2023-04-15T02:30:32;98826.72;;;6.39;96.98
68634;BME280;55625;47.072;22.192;2023-04-15T02:33:00;98816.91;;;6.31;96.98
68634;BME280;55625;47.072;22.192;2023-04-15T02:35:26;98828.72;;;6.26;96.77
68634;BME280;55625;47.072;22.192;2023-04-15T02:37:52;98822.06;;;6.20;96.26
68634;BME280;55625;47.072;22.192;2023-04-15T02:40:18;98819.88;;;6.11;96.23
68634;BME280;55625;47.072;22.192;2023-04-15T02:42:44;98823.22;;;6.06;96.48
68634;BME280;55625;47.072;22.192;2023-04-15T02:45:10;98822.09;;;6.04;97.05
68634;BME280;55625;47.072;22.192;2023-04-15T02:47:39;98827.72;;;6.04;96.38
68634;BME280;55625;47.072;22.192;2023-04-15T02:50:10;98831.19;;;5.95;97.12
68634;BME280;55625;47.072;22.192;2023-04-15T02:52:41;98825.66;;;5.91;96.87
68634;BME280;55625;47.072;22.192;2023-04-15T02:55:08;98836.66;;;5.86;96.91
68634;BME280;55625;47.072;22.192;2023-04-15T02:57:35;98843.59;;;5.81;97.04
68634;BME280;55625;47.072;22.192;2023-04-15T03:00:06;98838.50;;;5.76;97.45
68634;BME280;55625;47.072;22.192;2023-04-15T03:02:38;98842.22;;;5.73;97.34
68634;BME280;55625;47.072;22.192;2023-04-15T03:05:05;98849.41;;;5.74;96.87
68634;BME280;55625;47.072;22.192;2023-04-15T03:07:31;98836.94;;;5.75;96.60
68634;BME280;55625;47.072;22.192;2023-04-15T03:09:57;98843.44;;;5.72;96.64
68634;BME280;55625;47.072;22.192;2023-04-15T03:12:23;98831.84;;;5.70;97.29
68634;BME280;55625;47.072;22.192;2023-04-15T03:14:49;98839.94;;;5.68;97.64
68634;BME280;55625;47.072;22.192;2023-04-15T03:17:15;98842.31;;;5.70;97.03
68634;BME280;55625;47.072;22.192;2023-04-15T03:19:42;98834.22;;;5.72;97.83
68634;BME280;55625;47.072;22.192;2023-04-15T03:22:08;98844.34;;;5.69;97.83
68634;BME280;55625;47.072;22.192;2023-04-15T03:24:34;98845.91;;;5.70;97.69
68634;BME280;55625;47.072;22.192;2023-04-15T03:27:00;98850.31;;;5.71;98.15
68634;BME280;55625;47.072;22.192;2023-04-15T03:29:26;98853.47;;;5.73;96.95
68634;BME280;55625;47.072;22.192;2023-04-15T03:31:52;98849.88;;;5.73;98.21
68634;BME280;55625;47.072;22.192;2023-04-15T03:34:18;98846.25;;;5.72;97.73
68634;BME280;55625;47.072;22.192;2023-04-15T03:36:45;98838.34;;;5.67;98.96
68634;BME280;55625;47.072;22.192;2023-04-15T03:39:11;98849.63;;;5.67;99.40
68634;BME280;55625;47.072;22.192;2023-04-15T03:41:37;98841.97;;;5.68;100.00
68634;BME280;55625;47.072;22.192;2023-04-15T03:44:03;98842.31;;;5.70;99.77
68634;BME280;55625;47.072;22.192;2023-04-15T03:46:29;98848.72;;;5.70;100.00
68634;BME280;55625;47.072;22.192;2023-04-15T03:48:55;98847.06;;;5.73;100.00
68634;BME280;55625;47.072;22.192;2023-04-15T03:51:21;98846.25;;;5.72;100.00
68634;BME280;55625;47.072;22.192;2023-04-15T03:53:46;98853.38;;;5.77;99.99
68634;BME280;55625;47.072;22.192;2023-04-15T03:56:13;98852.47;;;5.80;99.76
68634;BME280;55625;47.072;22.192;2023-04-15T03:58:39;98857.25;;;5.83;99.41
68634;BME280;55625;47.072;22.192;2023-04-15T04:01:05;98853.91;;;5.88;99.38
68634;BME280;55625;47.072;22.192;2023-04-15T04:03:31;98850.66;;;5.89;98.75
68634;BME280;55625;47.072;22.192;2023-04-15T04:05:58;98861.38;;;5.95;99.35
68634;BME280;55625;47.072;22.192;2023-04-15T04:08:24;98855.66;;;5.98;98.67
68634;BME280;55625;47.072;22.192;2023-04-15T04:10:51;98865.94;;;6.05;97.88
68634;BME280;55625;47.072;22.192;2023-04-15T04:13:17;98868.41;;;6.03;99.30
68634;BME280;55625;47.072;22.192;2023-04-15T04:15:43;98875.16;;;6.05;99.07
68634;BME280;55625;47.072;22.192;2023-04-15T04:18:09;98870.31;;;6.06;98.87
68634;BME280;55625;47.072;22.192;2023-04-15T04:20:35;98863.13;;;6.05;98.97
68634;BME280;55625;47.072;22.192;2023-04-15T04:23:01;98865.94;;;6.05;99.16
68634;BME280;55625;47.072;22.192;2023-04-15T04:25:27;98862.75;;;6.03;98.44
68634;BME280;55625;47.072;22.192;2023-04-15T04:27:52;98858.72;;;6.04;98.92
68634;BME280;55625;47.072;22.192;2023-04-15T04:30:18;98858.16;;;6.09;99.02
68634;BME280;55625;47.072;22.192;2023-04-15T04:32:44;98859.56;;;6.17;99.53
68634;BME280;55625;47.072;22.192;2023-04-15T04:35:10;98854.63;;;6.21;99.18
68634;BME280;55625;47.072;22.192;2023-04-15T04:37:36;98856.56;;;6.24;99.42
68634;BME280;55625;47.072;22.192;2023-04-15T04:40:02;98855.09;;;6.32;99.11
68634;BME280;55625;47.072;22.192;2023-04-15T04:42:29;98862.22;;;6.37;99.00
68634;BME280;55625;47.072;22.192;2023-04-15T04:44:56;98851.63;;;6.41;99.14
68634;BME280;55625;47.072;22.192;2023-04-15T04:47:22;98847.84;;;6.47;98.88
68634;BME280;55625;47.072;22.192;2023-04-15T04:49:47;98847.63;;;6.54;98.48
68634;BME280;55625;47.072;22.192;2023-04-15T04:52:13;98843.34;;;6.63;98.28
68634;BME280;55625;47.072;22.192;2023-04-15T04:54:39;98853.75;;;6.78;98.19
68634;BME280;55625;47.072;22.192;2023-04-15T04:57:05;98854.88;;;6.94;97.14
68634;BME280;55625;47.072;22.192;2023-04-15T04:59:32;98852.09;;;7.06;96.68
68634;BME280;55625;47.072;22.192;2023-04-15T05:01:58;98857.50;;;7.13;97.18
68634;BME280;55625;47.072;22.192;2023-04-15T05:04:24;98856.91;;;7.19;97.47
68634;BME280;55625;47.072;22.192;2023-04-15T05:06:51;98856.47;;;7.20;97.22
68634;BME280;55625;47.072;22.192;2023-04-15T05:09:16;98857.59;;;7.23;97.45
68634;BME280;55625;47.072;22.192;2023-04-15T05:11:42;98856.69;;;7.26;97.16
68634;BME280;55625;47.072;22.192;2023-04-15T05:14:08;98850.13;;;7.29;96.93
68634;BME280;55625;47.072;22.192;2023-04-15T05:16:34;98852.38;;;7.34;96.81
68634;BME280;55625;47.072;22.192;2023-04-15T05:18:59;98857.47;;;7.39;97.58
68634;BME280;55625;47.072;22.192;2023-04-15T05:21:25;98859.72;;;7.44;97.75
68634;BME280;55625;47.072;22.192;2023-04-15T05:23:52;98874.19;;;7.46;97.91
68634;BME280;55625;47.072;22.192;2023-04-15T05:26:18;98874.06;;;7.50;96.43
68634;BME280;55625;47.072;22.192;2023-04-15T05:28:43;98880.81;;;7.52;96.84
68634;BME280;55625;47.072;22.192;2023-04-15T05:31:09;98879.91;;;7.55;96.23
68634;BME280;55625;47.072;22.192;2023-04-15T05:33:36;98887.47;;;7.58;95.57
68634;BME280;55625;47.072;22.192;2023-04-15T05:36:01;98886.09;;;7.63;93.68
68634;BME280;55625;47.072;22.192;2023-04-15T05:38:27;98896.06;;;7.67;94.47
68634;BME280;55625;47.072;22.192;2023-04-15T05:40:53;98883.84;;;7.70;94.81
68634;BME280;55625;47.072;22.192;2023-04-15T05:43:19;98889.84;;;7.72;94.52
68634;BME280;55625;47.072;22.192;2023-04-15T05:45:45;98894.91;;;7.77;93.49
68634;BME280;55625;47.072;22.192;2023-04-15T05:48:11;98896.38;;;7.82;94.26
68634;BME280;55625;47.072;22.192;2023-04-15T05:50:39;98890.47;;;7.89;93.43
68634;BME280;55625;47.072;22.192;2023-04-15T05:53:05;98900.72;;;7.96;92.66
68634;BME280;55625;47.072;22.192;2023-04-15T05:55:31;98895.78;;;8.00;92.25
68634;BME280;55625;47.072;22.192;2023-04-15T05:57:57;98909.19;;;8.08;92.93
68634;BME280;55625;47.072;22.192;2023-04-15T06:00:23;98908.13;;;8.15;92.82
68634;BME280;55625;47.072;22.192;2023-04-15T06:02:49;98914.91;;;8.18;93.59
68634;BME280;55625;47.072;22.192;2023-04-15T06:05:15;98911.81;;;8.25;92.78
68634;BME280;55625;47.072;22.192;2023-04-15T06:07:41;98910.94;;;8.28;93.87
68634;BME280;55625;47.072;22.192;2023-04-15T06:10:08;98908.34;;;8.33;93.39
68634;BME280;55625;47.072;22.192;2023-04-15T06:12:35;98921.75;;;8.42;93.52
68634;BME280;55625;47.072;22.192;2023-04-15T06:15:01;98929.50;;;8.51;92.57
68634;BME280;55625;47.072;22.192;2023-04-15T06:17:27;98929.72;;;8.56;92.33
68634;BME280;55625;47.072;22.192;2023-04-15T06:19:53;98930.13;;;8.67;92.31
68634;BME280;55625;47.072;22.192;2023-04-15T06:22:23;98937.41;;;8.78;92.62
68634;BME280;55625;47.072;22.192;2023-04-15T06:24:49;98941.09;;;8.87;92.01
68634;BME280;55625;47.072;22.192;2023-04-15T06:27:16;98944.00;;;8.96;91.56
68634;BME280;55625;47.072;22.192;2023-04-15T06:29:42;98951.47;;;9.12;91.61
68634;BME280;55625;47.072;22.192;2023-04-15T06:32:08;98954.09;;;9.28;90.53
68634;BME280;55625;47.072;22.192;2023-04-15T06:34:34;98948.94;;;9.36;90.07
68634;BME280;55625;47.072;22.192;2023-04-15T06:37:00;98960.75;;;9.44;89.09
68634;BME280;55625;47.072;22.192;2023-04-15T06:39:26;98961.28;;;9.51;89.32
68634;BME280;55625;47.072;22.192;2023-04-15T06:41:52;98954.41;;;9.61;87.48
68634;BME280;55625;47.072;22.192;2023-04-15T06:44:18;98959.31;;;9.70;87.07
68634;BME280;55625;47.072;22.192;2023-04-15T06:46:44;98952.09;;;9.78;85.91
68634;BME280;55625;47.072;22.192;2023-04-15T06:49:10;98967.09;;;9.88;86.22
68634;BME280;55625;47.072;22.192;2023-04-15T06:51:37;98975.94;;;9.99;86.72
68634;BME280;55625;47.072;22.192;2023-04-15T06:54:03;98967.66;;;10.14;85.58
68634;BME280;55625;47.072;22.192;2023-04-15T06:56:34;98965.94;;;10.25;84.27
68634;BME280;55625;47.072;22.192;2023-04-15T06:59:00;98963.59;;;10.33;83.76
68634;BME280;55625;47.072;22.192;2023-04-15T07:01:26;98969.13;;;10.55;82.78
68634;BME280;55625;47.072;22.192;2023-04-15T07:03:52;98968.97;;;10.86;81.63
68634;BME280;55625;47.072;22.192;2023-04-15T07:06:18;98964.56;;;11.03;79.50
68634;BME280;55625;47.072;22.192;2023-04-15T07:08:44;98959.63;;;11.22;79.15
68634;BME280;55625;47.072;22.192;2023-04-15T07:11:10;98968.94;;;11.74;78.60
68634;BME280;55625;47.072;22.192;2023-04-15T07:13:36;98968.41;;;12.18;74.18
68634;BME280;55625;47.072;22.192;2023-04-15T07:16:01;98958.41;;;12.46;73.28
68634;BME280;55625;47.072;22.192;2023-04-15T07:18:27;98973.00;;;12.63;73.93
68634;BME280;55625;47.072;22.192;2023-04-15T07:20:53;98978.28;;;12.55;72.18
68634;BME280;55625;47.072;22.192;2023-04-15T07:23:19;98975.75;;;12.57;73.21
68634;BME280;55625;47.072;22.192;2023-04-15T07:25:45;98977.44;;;12.40;71.34
68634;BME280;55625;47.072;22.192;2023-04-15T07:28:12;98979.91;;;11.99;70.35
68634;BME280;55625;47.072;22.192;2023-04-15T07:30:37;98988.31;;;11.85;73.28
68634;BME280;55625;47.072;22.192;2023-04-15T07:33:04;98996.38;;;12.19;72.14
68634;BME280;55625;47.072;22.192;2023-04-15T07:35:30;98989.22;;;12.24;71.50
68634;BME280;55625;47.072;22.192;2023-04-15T07:37:55;98988.53;;;12.38;73.66
68634;BME280;55625;47.072;22.192;2023-04-15T07:40:22;98994.66;;;12.84;72.87
68634;BME280;55625;47.072;22.192;2023-04-15T07:42:48;98984.75;;;13.33;70.76
68634;BME280;55625;47.072;22.192;2023-04-15T07:45:14;98994.16;;;13.68;69.15
68634;BME280;55625;47.072;22.192;2023-04-15T07:47:41;98990.19;;;13.95;69.75
68634;BME280;55625;47.072;22.192;2023-04-15T07:50:08;98993.81;;;14.11;67.11
68634;BME280;55625;47.072;22.192;2023-04-15T07:52:35;98987.97;;;14.20;66.59
68634;BME280;55625;47.072;22.192;2023-04-15T07:55:05;98981.41;;;14.49;67.93
68634;BME280;55625;47.072;22.192;2023-04-15T07:57:33;98985.75;;;14.65;64.66
68634;BME280;55625;47.072;22.192;2023-04-15T08:00:00;98980.50;;;14.22;64.52
68634;BME280;55625;47.072;22.192;2023-04-15T08:02:28;98992.34;;;14.01;63.70
68634;BME280;55625;47.072;22.192;2023-04-15T08:04:54;98978.47;;;14.08;64.61
68634;BME280;55625;47.072;22.192;2023-04-15T08:07:20;98985.34;;;14.51;64.46
68634;BME280;55625;47.072;22.192;2023-04-15T08:09:45;98983.25;;;14.93;64.54
68634;BME280;55625;47.072;22.192;2023-04-15T08:12:12;98970.69;;;15.31;63.33
68634;BME280;55625;47.072;22.192;2023-04-15T08:14:38;98975.19;;;15.63;62.19
68634;BME280;55625;47.072;22.192;2023-04-15T08:17:04;98972.47;;;15.86;60.50
68634;BME280;55625;47.072;22.192;2023-04-15T08:19:31;98970.59;;;15.77;57.11
68634;BME280;55625;47.072;22.192;2023-04-15T08:21:56;98969.19;;;15.93;58.11
68634;BME280;55625;47.072;22.192;2023-04-15T08:24:23;98978.03;;;15.95;55.83
68634;BME280;55625;47.072;22.192;2023-04-15T08:26:51;98985.56;;;15.92;54.12
68634;BME280;55625;47.072;22.192;2023-04-15T08:29:17;98980.19;;;15.48;54.02
68634;BME280;55625;47.072;22.192;2023-04-15T08:31:43;98972.84;;;15.15;54.10
68634;BME280;55625;47.072;22.192;2023-04-15T08:34:13;98980.75;;;15.52;57.49
68634;BME280;55625;47.072;22.192;2023-04-15T08:36:39;98968.53;;;15.77;56.07
68634;BME280;55625;47.072;22.192;2023-04-15T08:39:06;98975.19;;;15.63;52.50
68634;BME280;55625;47.072;22.192;2023-04-15T08:42:10;98983.53;;;14.95;53.72
68634;BME280;55625;47.072;22.192;2023-04-15T08:44:34;98975.50;;;14.52;56.64
68634;BME280;55625;47.072;22.192;2023-04-15T08:47:02;98975.41;;;14.67;57.92
68634;BME280;55625;47.072;22.192;2023-04-15T08:49:28;98977.84;;;15.20;56.22
68634;BME280;55625;47.072;22.192;2023-04-15T08:51:57;98972.88;;;15.67;55.19
68634;BME280;55625;47.072;22.192;2023-04-15T08:54:24;98974.09;;;15.61;53.61
68634;BME280;55625;47.072;22.192;2023-04-15T08:56:51;98963.47;;;15.61;55.19
68634;BME280;55625;47.072;22.192;2023-04-15T08:59:17;98973.88;;;15.96;52.80
68634;BME280;55625;47.072;22.192;2023-04-15T09:01:44;98971.91;;;16.13;54.44
68634;BME280;55625;47.072;22.192;2023-04-15T09:04:10;98974.28;;;16.20;51.94
68634;BME280;55625;47.072;22.192;2023-04-15T09:06:39;98967.16;;;15.67;50.21
68634;BME280;55625;47.072;22.192;2023-04-15T09:09:05;98968.66;;;15.94;51.93
68634;BME280;55625;47.072;22.192;2023-04-15T09:11:30;98969.31;;;16.15;53.89
68634;BME280;55625;47.072;22.192;2023-04-15T09:13:56;98976.59;;;16.16;51.77
68634;BME280;55625;47.072;22.192;2023-04-15T09:16:22;98973.22;;;16.18;52.14
68634;BME280;55625;47.072;22.192;2023-04-15T09:18:49;98972.72;;;15.82;51.21
68634;BME280;55625;47.072;22.192;2023-04-15T09:21:16;98971.03;;;16.38;54.37
68634;BME280;55625;47.072;22.192;2023-04-15T09:23:57;98972.38;;;17.02;50.71
68634;BME280;55625;47.072;22.192;2023-04-15T09:29:06;98965.09;;;17.13;47.73
68634;BME280;55625;47.072;22.192;2023-04-15T09:31:32;98965.88;;;17.07;45.38
68634;BME280;55625;47.072;22.192;2023-04-15T09:33:58;98956.78;;;17.15;46.35
68634;BME280;55625;47.072;22.192;2023-04-15T09:36:24;98967.22;;;17.29;50.12
68634;BME280;55625;47.072;22.192;2023-04-15T09:38:56;98970.34;;;17.20;48.73
68634;BME280;55625;47.072;22.192;2023-04-15T09:41:24;98973.78;;;17.46;50.02
68634;BME280;55625;47.072;22.192;2023-04-15T09:43:50;98969.78;;;17.10;50.32
68634;BME280;55625;47.072;22.192;2023-04-15T09:46:16;98969.50;;;16.49;46.40
68634;BME280;55625;47.072;22.192;2023-04-15T09:48:42;98969.72;;;15.97;49.07
68634;BME280;55625;47.072;22.192;2023-04-15T09:51:08;98960.88;;;15.63;50.98
68634;BME280;55625;47.072;22.192;2023-04-15T09:53:35;98965.22;;;15.59;51.60
68634;BME280;55625;47.072;22.192;2023-04-15T09:56:02;98963.28;;;15.44;52.37
68634;BME280;55625;47.072;22.192;2023-04-15T09:58:31;98975.59;;;15.30;54.18
68634;BME280;55625;47.072;22.192;2023-04-15T10:00:59;98969.31;;;15.00;54.61
68634;BME280;55625;47.072;22.192;2023-04-15T10:03:34;98963.81;;;15.22;53.63
68634;BME280;55625;47.072;22.192;2023-04-15T10:06:03;98957.09;;;15.77;52.14
68634;BME280;55625;47.072;22.192;2023-04-15T10:08:32;98958.38;;;15.76;51.03
68634;BME280;55625;47.072;22.192;2023-04-15T10:11:01;98964.75;;;15.34;52.64
68634;BME280;55625;47.072;22.192;2023-04-15T10:13:30;98974.59;;;15.07;52.04
68634;BME280;55625;47.072;22.192;2023-04-15T10:16:14;98970.50;;;15.40;52.86
68634;BME280;55625;47.072;22.192;2023-04-15T10:18:47;98971.94;;;15.30;55.02
68634;BME280;55625;47.072;22.192;2023-04-15T10:21:16;98969.31;;;15.26;55.70
68634;BME280;55625;47.072;22.192;2023-04-15T10:23:44;98970.00;;;15.41;56.68
68634;BME280;55625;47.072;22.192;2023-04-15T10:26:12;98957.53;;;15.70;51.18
68634;BME280;55625;47.072;22.192;2023-04-15T10:28:40;98975.00;;;16.09;52.66
68634;BME280;55625;47.072;22.192;2023-04-15T10:31:06;98967.13;;;16.84;53.89
68634;BME280;55625;47.072;22.192;2023-04-15T10:33:33;98965.91;;;17.30;52.68
68634;BME280;55625;47.072;22.192;2023-04-15T10:36:00;98973.16;;;17.08;49.00
68634;BME280;55625;47.072;22.192;2023-04-15T10:38:42;98966.19;;;17.43;49.99
68634;BME280;55625;47.072;22.192;2023-04-15T10:41:23;98966.19;;;17.21;46.40
68634;BME280;55625;47.072;22.192;2023-04-15T10:44:00;98963.47;;;16.84;48.65
68634;BME280;55625;47.072;22.192;2023-04-15T10:46:44;98962.72;;;17.00;51.26
68634;BME280;55625;47.072;22.192;2023-04-15T10:49:15;98959.84;;;16.94;48.34
68634;BME280;55625;47.072;22.192;2023-04-15T10:51:50;98961.13;;;16.88;46.52
68634;BME280;55625;47.072;22.192;2023-04-15T10:54:32;98965.25;;;16.27;46.98
68634;BME280;55625;47.072;22.192;2023-04-15T10:59:38;98965.47;;;15.87;49.42
68634;BME280;55625;47.072;22.192;2023-04-15T11:02:05;98977.31;;;15.68;48.94
68634;BME280;55625;47.072;22.192;2023-04-15T11:04:54;98977.88;;;15.52;52.73
68634;BME280;55625;47.072;22.192;2023-04-15T11:07:39;98978.69;;;15.78;59.37
68634;BME280;55625;47.072;22.192;2023-04-15T11:12:49;98981.25;;;15.76;56.37
68634;BME280;55625;47.072;22.192;2023-04-15T11:15:35;98976.91;;;15.87;53.49
68634;BME280;55625;47.072;22.192;2023-04-15T11:18:20;98991.91;;;15.76;53.29
68634;BME280;55625;47.072;22.192;2023-04-15T11:20:59;98988.03;;;15.79;52.51
68634;BME280;55625;47.072;22.192;2023-04-15T11:23:40;98994.75;;;15.70;52.40
68634;BME280;55625;47.072;22.192;2023-04-15T11:26:11;98991.22;;;15.87;52.54
68634;BME280;55625;47.072;22.192;2023-04-15T11:28:41;98993.50;;;16.14;50.44
68634;BME280;55625;47.072;22.192;2023-04-15T11:31:16;98993.22;;;16.12;50.55
68634;BME280;55625;47.072;22.192;2023-04-15T11:33:59;98993.78;;;16.16;53.48
68634;BME280;55625;47.072;22.192;2023-04-15T11:36:28;98991.81;;;16.82;50.96
68634;BME280;55625;47.072;22.192;2023-04-15T11:38:56;98988.53;;;17.11;47.37
68634;BME280;55625;47.072;22.192;2023-04-15T11:41:25;98987.09;;;17.49;50.27
68634;BME280;55625;47.072;22.192;2023-04-15T11:43:51;98993.38;;;17.70;45.12
68634;BME280;55625;47.072;22.192;2023-04-15T11:46:18;98989.19;;;17.65;44.91
68634;BME280;55625;47.072;22.192;2023-04-15T11:48:45;98993.28;;;17.20;46.67
68634;BME280;55625;47.072;22.192;2023-04-15T11:51:12;98992.53;;;17.42;47.44
68634;BME280;55625;47.072;22.192;2023-04-15T11:53:46;98994.13;;;17.48;48.21
68634;BME280;55625;47.072;22.192;2023-04-15T11:56:21;98983.38;;;17.15;45.40
68634;BME280;55625;47.072;22.192;2023-04-15T11:58:50;99000.53;;;17.04;47.07
68634;BME280;55625;47.072;22.192;2023-04-15T12:01:17;98992.69;;;16.93;47.45
68634;BME280;55625;47.072;22.192;2023-04-15T12:03:47;98999.47;;;17.01;47.37
68634;BME280;55625;47.072;22.192;2023-04-15T12:06:24;99001.84;;;17.08;47.04
68634;BME280;55625;47.072;22.192;2023-04-15T12:09:12;99000.84;;;17.23;47.91
68634;BME280;55625;47.072;22.192;2023-04-15T12:11:45;98997.72;;;17.32;47.35
68634;BME280;55625;47.072;22.192;2023-04-15T12:14:15;99002.94;;;17.22;46.88
68634;BME280;55625;47.072;22.192;2023-04-15T12:16:44;98994.34;;;17.39;49.03
68634;BME280;55625;47.072;22.192;2023-04-15T12:19:13;98995.69;;;17.55;46.80
68634;BME280;55625;47.072;22.192;2023-04-15T12:21:44;98990.75;;;17.50;46.70
68634;BME280;55625;47.072;22.192;2023-04-15T12:24:11;98995.91;;;17.40;48.03
68634;BME280;55625;47.072;22.192;2023-04-15T12:26:47;98996.97;;;17.37;47.67
68634;BME280;55625;47.072;22.192;2023-04-15T12:29:15;98990.47;;;17.53;47.39
68634;BME280;55625;47.072;22.192;2023-04-15T12:31:55;98997.47;;;17.41;47.85
68634;BME280;55625;47.072;22.192;2023-04-15T12:37:05;99000.22;;;16.85;47.69
68634;BME280;55625;47.072;22.192;2023-04-15T12:39:36;99008.50;;;16.77;50.56
68634;BME280;55625;47.072;22.192;2023-04-15T12:42:03;99000.16;;;16.80;48.08
68634;BME280;55625;47.072;22.192;2023-04-15T12:44:30;99004.13;;;16.88;49.41
68634;BME280;55625;47.072;22.192;2023-04-15T12:46:56;99004.56;;;16.75;48.46
68634;BME280;55625;47.072;22.192;2023-04-15T12:49:23;99007.69;;;16.77;48.01
68634;BME280;55625;47.072;22.192;2023-04-15T12:51:54;99006.41;;;16.78;49.58
68634;BME280;55625;47.072;22.192;2023-04-15T12:54:20;99009.78;;;16.76;47.57
68634;BME280;55625;47.072;22.192;2023-04-15T12:56:48;99012.97;;;16.84;49.04
68634;BME280;55625;47.072;22.192;2023-04-15T12:59:16;99013.00;;;16.95;51.33
68634;BME280;55625;47.072;22.192;2023-04-15T13:01:44;99009.19;;;17.21;49.16
68634;BME280;55625;47.072;22.192;2023-04-15T13:04:10;99012.34;;;17.28;49.05
68634;BME280;55625;47.072;22.192;2023-04-15T13:06:36;99006.91;;;17.53;47.30
68634;BME280;55625;47.072;22.192;2023-04-15T13:09:03;99003.78;;;17.45;45.61